Time;durP1;ratioP1;P1;durP2;ratioP2;P2;SDS_P1;SDS_P2;PMS_P1;PMS_P2;Temp;Humidity;BMP_temperature;BMP_pressure;BME280_temperature;BME280_humidity;BME280_pressure;Samples;Min_cycle;Max_cycle;Signal;HPM_P1;HPM_P2
2022/03/07 00:00:17;;;;;;;46.97;25.30;;;;;;;1.39;62.99;100860.87;127650;1098;101459;-78
2022/03/07 00:03:08;;;;;;;43.80;24.43;;;;;;;1.39;63.50;100859.98;127716;1098;104830;-78
2022/03/07 00:05:39;;;;;;;44.47;24.90;;;;;;;1.40;63.52;100848.84;127687;1098;101722;-78
2022/03/07 00:08:11;;;;;;;46.27;24.63;;;;;;;1.43;63.65;100850.00;127759;1098;101091;-78
2022/03/07 00:10:42;;;;;;;49.07;26.20;;;;;;;1.47;63.58;100855.41;127607;1098;101407;-78
2022/03/07 00:13:13;;;;;;;54.87;33.30;;;;;;;1.53;63.17;100850.72;127758;1098;101631;-78
2022/03/07 00:15:45;;;;;;;58.83;32.57;;;;;;;1.54;63.77;100839.56;127758;1098;102031;-78
2022/03/07 00:18:17;;;;;;;59.00;32.70;;;;;;;1.52;63.21;100831.69;127726;1098;101533;-77
2022/03/07 00:20:48;;;;;;;55.90;32.97;;;;;;;1.52;63.34;100830.80;127680;1098;101610;-77
2022/03/07 00:23:19;;;;;;;50.33;29.53;;;;;;;1.50;63.83;100827.20;127776;1098;101562;-77
2022/03/07 00:25:51;;;;;;;56.50;30.83;;;;;;;1.49;63.79;100820.22;127781;1098;101649;-78
2022/03/07 00:28:22;;;;;;;53.70;31.30;;;;;;;1.46;63.48;100825.16;127776;1097;103011;-77
2022/03/07 00:30:53;;;;;;;54.27;31.30;;;;;;;1.43;63.64;100821.55;127601;1098;101367;-78
2022/03/07 00:33:25;;;;;;;55.30;30.27;;;;;;;1.39;64.13;100824.67;127730;1098;101949;-78
2022/03/07 00:35:57;;;;;;;56.70;32.10;;;;;;;1.36;63.92;100814.09;127748;1098;101540;-78
2022/03/07 00:38:28;;;;;;;60.13;34.93;;;;;;;1.33;63.39;100811.27;127755;1098;101494;-78
2022/03/07 00:41:00;;;;;;;57.53;34.27;;;;;;;1.31;63.59;100807.67;126425;1099;102991;-78
2022/03/07 00:43:32;;;;;;;55.97;32.90;;;;;;;1.33;63.69;100808.69;127698;1098;101201;-77
2022/03/07 00:46:04;;;;;;;57.20;31.50;;;;;;;1.29;63.65;100806.63;127712;1098;101556;-78
2022/03/07 00:48:35;;;;;;;53.80;30.40;;;;;;;1.27;63.68;100804.73;127729;1098;101594;-78
2022/03/07 00:51:06;;;;;;;55.00;30.83;;;;;;;1.28;64.11;100803.93;127631;1098;101485;-78
2022/03/07 00:53:38;;;;;;;52.50;30.83;;;;;;;1.28;63.84;100802.27;127704;1096;101908;-78
2022/03/07 00:56:10;;;;;;;58.77;30.67;;;;;;;1.28;64.01;100802.27;127686;1098;101488;-79
2022/03/07 00:58:41;;;;;;;50.87;29.30;;;;;;;1.28;63.78;100794.52;127701;1098;101556;-78
2022/03/07 01:01:12;;;;;;;51.43;30.37;;;;;;;1.31;64.04;100786.99;127635;1098;101460;-78
2022/03/07 01:03:44;;;;;;;56.13;29.60;;;;;;;1.34;64.12;100779.47;126214;1101;101638;-78
2022/03/07 01:06:15;;;;;;;51.73;28.30;;;;;;;1.35;64.54;100783.84;126251;1102;102949;-78
2022/03/07 01:08:47;;;;;;;48.97;25.97;;;;;;;1.33;64.59;100782.83;126273;1102;101390;-78
2022/03/07 01:11:18;;;;;;;46.70;26.47;;;;;;;1.30;64.25;100782.59;126198;1102;101712;-78
2022/03/07 01:13:50;;;;;;;49.50;27.17;;;;;;;1.28;64.53;100781.58;126238;1102;101600;-78
2022/03/07 01:16:21;;;;;;;55.03;28.17;;;;;;;1.29;64.19;100769.55;126282;1101;101590;-78
2022/03/07 01:18:53;;;;;;;51.27;26.53;;;;;;;1.28;64.49;100770.31;126229;1102;101857;-78
2022/03/07 01:21:25;;;;;;;52.43;28.10;;;;;;;1.25;64.52;100768.42;126271;1101;101931;-78
2022/03/07 01:23:56;;;;;;;46.43;25.67;;;;;;;1.22;64.51;100761.31;126316;1101;101166;-78
2022/03/07 01:26:28;;;;;;;47.83;25.77;;;;;;;1.20;64.64;100764.55;126247;1102;101725;-78
2022/03/07 01:28:59;;;;;;;47.73;26.27;;;;;;;1.16;64.46;100760.84;126255;1102;101549;-78
2022/03/07 01:31:31;;;;;;;50.63;27.43;;;;;;;1.14;64.41;100759.83;126273;1102;102963;-77
2022/03/07 01:34:02;;;;;;;55.70;29.03;;;;;;;1.12;64.43;100750.15;126207;1101;101862;-77
2022/03/07 01:36:33;;;;;;;52.17;30.17;;;;;;;1.10;64.85;100756.89;127581;1098;101600;-78
2022/03/07 01:39:05;;;;;;;56.37;29.60;;;;;;;1.10;64.83;100756.89;127677;1098;101632;-78
2022/03/07 01:41:37;;;;;;;50.57;26.83;;;;;;;1.08;65.19;100756.77;127657;1098;101869;-78
2022/03/07 01:44:18;;;;;;;53.03;26.93;;;;;;;1.05;65.05;100748.78;127704;1098;102019;-78
2022/03/07 01:46:50;;;;;;;54.23;30.73;;;;;;;1.04;64.97;100750.47;126401;1099;101593;-78
2022/03/07 01:49:22;;;;;;;58.30;32.50;;;;;;;1.01;64.90;100738.98;127720;1098;101523;-78
2022/03/07 01:51:54;;;;;;;53.90;29.43;;;;;;;1.01;65.11;100750.23;127578;1098;101356;-78
2022/03/07 01:54:26;;;;;;;50.30;29.23;;;;;;;0.99;65.26;100744.02;127735;1098;101531;-78
2022/03/07 01:56:59;;;;;;;55.07;32.63;;;;;;;1.01;65.16;100744.14;126376;1099;101930;-78
2022/03/07 01:59:33;;;;;;;54.73;29.37;;;;;;;1.02;65.46;100739.09;126354;1099;101611;-78
2022/03/07 02:02:02;;;;;;;;;;;;;;;1.04;65.27;100741.80;126447;1099;102047;-78
2022/03/07 02:04:38;;;;;;;53.23;28.00;;;;;;;1.04;64.98;100736.62;126401;1099;101611;-78
2022/03/07 02:07:11;;;;;;;46.00;26.03;;;;;;;1.03;65.38;100740.91;126391;1098;101536;-78
2022/03/07 02:09:43;;;;;;;49.37;28.60;;;;;;;1.01;65.62;100737.31;127707;1098;101889;-78
2022/03/07 02:12:16;;;;;;;49.38;26.93;;;;;;;1.00;65.51;100739.78;126374;1098;101606;-78
2022/03/07 02:14:48;;;;;;;49.37;27.67;;;;;;;1.00;65.26;100732.03;126367;1099;101972;-78
2022/03/07 02:17:19;;;;;;;50.60;27.60;;;;;;;1.01;65.57;100737.31;127668;1098;101517;-78
2022/03/07 02:19:51;;;;;;;49.23;26.57;;;;;;;1.01;65.41;100734.73;126398;1098;101692;-78
2022/03/07 02:22:24;;;;;;;49.97;27.40;;;;;;;1.00;65.40;100727.75;126390;1099;101942;-79
2022/03/07 02:24:56;;;;;;;46.97;25.10;;;;;;;0.99;66.32;100732.80;126379;1099;101626;-78
2022/03/07 02:27:28;;;;;;;45.37;25.10;;;;;;;0.96;65.95;100729.98;127701;1098;101082;-78
2022/03/07 02:29:59;;;;;;;46.83;25.47;;;;;;;0.93;65.70;100720.29;126400;1098;101599;-78
2022/03/07 02:32:32;;;;;;;45.83;25.20;;;;;;;0.91;65.75;100724.45;126331;1099;102805;-79
2022/03/07 02:35:07;;;;;;;47.15;24.75;;;;;;;0.91;66.60;100724.45;126388;1099;102943;-78
2022/03/07 02:37:39;;;;;;;48.13;26.50;;;;;;;0.89;65.85;100726.02;126375;1099;101544;-78
2022/03/07 02:40:12;;;;;;;48.40;25.87;;;;;;;0.89;65.77;100728.61;127721;1098;101534;-78
2022/03/07 02:42:48;;;;;;;54.27;29.93;;;;;;;0.87;65.89;100727.56;126318;1099;101500;-78
2022/03/07 02:45:19;;;;;;;55.00;29.87;;;;;;;0.87;65.90;100724.98;127724;1098;101537;-78
2022/03/07 02:47:51;;;;;;;55.63;32.67;;;;;;;0.89;65.91;100723.44;127686;1098;101881;-78
2022/03/07 02:50:22;;;;;;;56.10;32.10;;;;;;;0.90;65.60;100722.64;126405;1099;101578;-78
2022/03/07 02:52:56;;;;;;;55.87;33.37;;;;;;;0.93;66.06;100716.82;126321;1099;101599;-78
2022/03/07 02:55:27;;;;;;;50.03;29.97;;;;;;;0.96;65.75;100722.23;127686;1098;101501;-77
2022/03/07 02:57:59;;;;;;;54.17;31.03;;;;;;;0.98;66.07;100721.58;127691;1097;101547;-77
2022/03/07 03:00:30;;;;;;;50.20;28.67;;;;;;;0.99;65.84;100717.30;127701;1098;101878;-78
2022/03/07 03:03:02;;;;;;;49.33;28.17;;;;;;;1.00;65.49;100713.94;127643;1098;102044;-79
2022/03/07 03:05:34;;;;;;;47.10;25.77;;;;;;;1.01;66.25;100719.23;127704;1098;101497;-78
2022/03/07 03:08:05;;;;;;;48.37;26.63;;;;;;;1.04;66.00;100715.95;126396;1099;101572;-78
2022/03/07 03:10:37;;;;;;;41.83;23.70;;;;;;;1.07;66.05;100711.91;127714;1098;101537;-78
2022/03/07 03:13:09;;;;;;;47.33;27.07;;;;;;;1.10;65.97;100711.27;127607;1098;102750;-79
2022/03/07 03:15:40;;;;;;;45.50;25.00;;;;;;;1.15;66.15;100719.37;126377;1099;101682;-78
2022/03/07 03:18:11;;;;;;;51.17;28.43;;;;;;;1.18;66.07;100714.44;127698;1098;101117;-78
2022/03/07 03:20:43;;;;;;;55.83;31.50;;;;;;;1.20;66.17;100712.85;127679;1098;101567;-78
2022/03/07 03:23:15;;;;;;;49.87;28.43;;;;;;;1.21;66.13;100710.39;127656;1098;101549;-79
2022/03/07 03:25:47;;;;;;;51.77;31.37;;;;;;;1.17;66.27;100710.95;127684;1098;119078;-78
2022/03/07 03:28:18;;;;;;;51.70;30.77;;;;;;;1.12;66.19;100717.44;127670;1098;101182;-77
2022/03/07 03:30:49;;;;;;;56.43;31.73;;;;;;;1.08;66.24;100705.97;127670;1098;101686;-78
2022/03/07 03:33:21;;;;;;;59.07;31.30;;;;;;;1.06;66.22;100704.96;127715;1098;101578;-78
2022/03/07 03:35:52;;;;;;;52.60;30.10;;;;;;;1.04;66.31;100703.95;127605;1098;101504;-78
2022/03/07 03:38:23;;;;;;;48.60;28.90;;;;;;;1.03;66.39;100704.73;127664;1097;102995;-78
2022/03/07 03:40:55;;;;;;;50.40;28.50;;;;;;;1.04;66.30;100705.62;126348;1099;101699;-78
2022/03/07 03:43:26;;;;;;;52.97;30.10;;;;;;;1.02;66.29;100705.50;127715;1098;101480;-78
2022/03/07 03:45:57;;;;;;;50.00;30.07;;;;;;;1.01;66.25;100701.14;127617;1098;101661;-78
2022/03/07 03:48:31;;;;;;;55.73;31.30;;;;;;;1.00;66.40;100696.73;127685;1098;101473;-78
2022/03/07 03:51:05;;;;;;;49.23;29.10;;;;;;;1.01;66.76;100693.38;126429;1099;103015;-79
2022/03/07 03:53:39;;;;;;;56.27;31.30;;;;;;;1.02;66.35;100691.69;127658;1098;101779;-79
2022/03/07 03:56:12;;;;;;;53.33;29.57;;;;;;;1.02;66.56;100697.75;127574;1098;101859;-78
2022/03/07 03:58:43;;;;;;;50.63;29.10;;;;;;;1.03;66.41;100688.33;127702;1098;101530;-79
2022/03/07 04:01:14;;;;;;;52.87;29.40;;;;;;;1.04;66.54;100685.87;127697;1098;101463;-79
2022/03/07 04:03:46;;;;;;;51.70;30.10;;;;;;;1.07;66.51;100680.90;127703;1098;101856;-80
2022/03/07 04:06:17;;;;;;;54.13;31.20;;;;;;;1.10;66.50;100679.36;127615;1098;101546;-78
2022/03/07 04:09:03;;;;;;;52.83;30.90;;;;;;;1.11;66.45;100687.22;127691;1098;101855;-79
2022/03/07 04:11:54;;;;;;;48.53;25.77;;;;;;;1.13;66.60;100682.17;127714;1098;101492;-79
2022/03/07 04:14:25;;;;;;;48.63;26.50;;;;;;;1.11;66.49;100684.64;127609;1098;101478;-79
2022/03/07 04:16:57;;;;;;;48.97;28.50;;;;;;;1.09;66.58;100681.02;127656;1098;119053;-78
2022/03/07 04:19:28;;;;;;;46.20;25.93;;;;;;;1.08;66.51;100679.23;127682;1098;101494;-78
2022/03/07 04:21:59;;;;;;;49.70;27.07;;;;;;;1.07;66.55;100678.31;127680;1098;101528;-79
2022/03/07 04:24:32;;;;;;;42.43;22.87;;;;;;;1.08;67.00;100679.23;127721;1098;101142;-79
2022/03/07 04:27:04;;;;;;;46.07;24.03;;;;;;;1.06;66.78;100679.12;127576;1098;101483;-78
2022/03/07 04:29:36;;;;;;;41.87;22.60;;;;;;;1.02;66.80;100665.84;127712;1098;101911;-78
2022/03/07 04:32:09;;;;;;;46.43;22.83;;;;;;;1.00;66.81;100677.77;126375;1099;101185;-79
2022/03/07 04:34:40;;;;;;;43.30;22.67;;;;;;;0.97;66.77;100673.25;127709;1098;101552;-79
2022/03/07 04:37:12;;;;;;;45.23;23.63;;;;;;;0.94;66.65;100680.77;127577;1098;101629;-79
2022/03/07 04:39:43;;;;;;;47.57;26.57;;;;;;;0.92;66.88;100678.83;127713;1098;101509;-80
2022/03/07 04:42:14;;;;;;;55.27;28.33;;;;;;;0.90;67.15;100681.30;127697;1098;101846;-79
2022/03/07 04:44:46;;;;;;;57.80;35.10;;;;;;;0.87;67.06;100681.98;127654;1098;101492;-78
2022/03/07 04:47:19;;;;;;;59.53;36.83;;;;;;;0.85;66.98;100677.47;127550;1098;101472;-79
2022/03/07 04:49:50;;;;;;;53.43;31.00;;;;;;;0.83;67.14;100676.46;127669;1098;101590;-79
2022/03/07 04:52:22;;;;;;;48.20;28.47;;;;;;;0.82;67.15;100677.23;126433;1099;101627;-79
2022/03/07 04:54:55;;;;;;;49.07;27.37;;;;;;;0.80;67.16;100665.89;127667;1098;102012;-79
2022/03/07 04:57:26;;;;;;;47.30;26.00;;;;;;;0.80;67.11;100669.36;126375;1099;101585;-79
2022/03/07 05:00:01;;;;;;;51.27;26.80;;;;;;;0.81;67.13;100671.17;126409;1099;101671;-79
2022/03/07 05:02:35;;;;;;;47.95;24.55;;;;;;;0.80;67.43;100673.64;127699;1098;101676;-80
2022/03/07 05:05:09;;;;;;;44.87;23.97;;;;;;;0.78;67.38;100664.84;127555;1098;101211;-79
2022/03/07 05:07:40;;;;;;;45.40;24.37;;;;;;;0.77;67.58;100663.95;127602;1098;101909;-79
2022/03/07 05:10:12;;;;;;;44.10;24.40;;;;;;;0.76;67.86;100663.84;127529;1098;101906;-79
2022/03/07 05:12:43;;;;;;;49.50;25.57;;;;;;;0.75;68.07;100656.86;127649;1098;101922;-78
2022/03/07 05:15:15;;;;;;;47.07;26.37;;;;;;;0.76;67.67;100658.67;127671;1098;101552;-78
2022/03/07 05:17:48;;;;;;;45.73;25.23;;;;;;;0.76;67.71;100658.67;127560;1098;101529;-78
2022/03/07 05:20:19;;;;;;;47.27;26.73;;;;;;;0.76;67.43;100648.34;127425;1098;103022;-78
2022/03/07 05:22:51;;;;;;;56.40;30.57;;;;;;;0.79;67.67;100645.99;127420;1098;101675;-78
2022/03/07 05:25:23;;;;;;;51.53;26.23;;;;;;;0.82;67.65;100648.81;127307;1099;101684;-79
2022/03/07 05:27:55;;;;;;;46.07;26.07;;;;;;;0.86;67.89;100643.11;127259;1099;101613;-79
2022/03/07 05:30:26;;;;;;;46.63;27.17;;;;;;;0.88;67.63;100644.12;126408;1099;101789;-79
2022/03/07 05:32:58;;;;;;;47.37;27.33;;;;;;;0.93;67.58;100642.78;127283;1099;103546;-79
2022/03/07 05:35:30;;;;;;;46.67;26.90;;;;;;;0.95;67.88;100642.89;127269;1098;101893;-78
2022/03/07 05:38:04;;;;;;;46.90;27.03;;;;;;;0.96;67.86;100634.38;127205;1099;101842;-79
2022/03/07 05:40:36;;;;;;;49.60;29.50;;;;;;;1.00;67.98;100631.25;126407;1099;101686;-79
2022/03/07 05:43:12;;;;;;;51.57;28.20;;;;;;;1.04;67.60;100629.02;127424;1099;101608;-79
2022/03/07 05:45:44;;;;;;;50.67;28.52;;;;;;;1.10;67.69;100627.66;127436;1098;101836;-79
2022/03/07 05:48:18;;;;;;;44.23;25.50;;;;;;;1.14;68.01;100635.77;126373;1099;101884;-79
2022/03/07 05:50:51;;;;;;;52.55;28.80;;;;;;;1.18;67.73;100630.02;126469;1098;101634;-79
2022/03/07 05:53:23;;;;;;;46.53;26.30;;;;;;;1.21;67.83;100627.66;127670;1098;101553;-80
2022/03/07 05:55:57;;;;;;;50.93;27.17;;;;;;;1.25;67.92;100623.65;127678;1098;101556;-79
2022/03/07 05:58:29;;;;;;;47.13;25.57;;;;;;;1.30;67.72;100622.30;127492;1098;101908;-78
2022/03/07 06:01:01;;;;;;;43.30;22.93;;;;;;;1.31;68.11;100618.94;126324;1102;101876;-78
2022/03/07 06:03:32;;;;;;;40.07;22.87;;;;;;;1.33;67.99;100625.11;127615;1098;101524;-78
2022/03/07 06:06:04;;;;;;;47.13;24.80;;;;;;;1.36;67.72;100627.92;127383;1099;101515;-77
2022/03/07 06:08:39;;;;;;;46.70;23.87;;;;;;;1.39;68.16;100624.68;127432;1098;101676;-79
2022/03/07 06:11:12;;;;;;;47.33;24.90;;;;;;;1.41;68.24;100630.85;127490;1098;101894;-78
2022/03/07 06:13:44;;;;;;;43.98;24.43;;;;;;;1.42;67.61;100628.38;127296;1098;101644;-78
2022/03/07 06:16:21;;;;;;;44.83;24.63;;;;;;;1.46;67.80;100634.67;127333;1098;101439;-78
2022/03/07 06:18:56;;;;;;;40.83;23.03;;;;;;;1.47;68.27;100633.00;126391;1102;101720;-76
2022/03/07 06:21:30;;;;;;;42.30;22.40;;;;;;;1.49;67.56;100629.72;126466;1099;101676;-78
2022/03/07 06:24:02;;;;;;;44.13;22.53;;;;;;;1.51;67.84;100632.42;126429;1099;103489;-78
2022/03/07 06:26:37;;;;;;;40.80;23.00;;;;;;;1.51;67.79;100627.25;126388;1102;101734;-77
2022/03/07 06:29:11;;;;;;;49.10;25.53;;;;;;;1.55;67.68;100629.28;127323;1098;101240;-77
2022/03/07 06:31:54;;;;;;;46.47;26.13;;;;;;;1.56;67.91;100625.92;127494;1097;101601;-77
2022/03/07 06:34:27;;;;;;;48.33;26.93;;;;;;;1.58;67.67;100625.23;126368;1099;101732;-76
2022/03/07 06:37:01;;;;;;;49.30;28.50;;;;;;;1.61;68.37;100628.04;126359;1099;103089;-76
2022/03/07 06:39:33;;;;;;;49.77;29.03;;;;;;;1.61;67.71;100634.91;127149;1098;101901;-76
2022/03/07 06:42:10;;;;;;;54.27;29.40;;;;;;;1.64;68.27;100618.70;126392;1099;101785;-77
2022/03/07 06:44:44;;;;;;;58.07;33.53;;;;;;;1.66;67.70;100636.14;127265;1099;101599;-76
2022/03/07 06:47:17;;;;;;;54.23;32.10;;;;;;;1.67;68.00;100625.02;127444;1098;101308;-77
2022/03/07 06:49:55;;;;;;;59.07;33.97;;;;;;;1.69;68.36;100625.12;127270;1098;102359;-78
2022/03/07 06:52:29;;;;;;;58.87;33.07;;;;;;;1.69;68.56;100623.43;127321;1098;101566;-76
2022/03/07 06:55:04;;;;;;;61.33;34.73;;;;;;;1.71;68.19;100629.61;127292;1098;101597;-77
2022/03/07 06:57:35;;;;;;;58.43;31.50;;;;;;;1.72;68.13;100626.24;127292;1099;101665;-77
2022/03/07 07:00:14;;;;;;;49.07;26.50;;;;;;;1.71;67.61;100619.26;127240;1099;101609;-78
2022/03/07 07:02:52;;;;;;;50.20;26.87;;;;;;;1.67;68.08;100622.43;126396;1099;101877;-76
2022/03/07 07:05:26;;;;;;;52.00;26.20;;;;;;;1.69;67.63;100623.43;127247;1099;101266;-77
2022/03/07 07:08:02;;;;;;;48.57;26.27;;;;;;;1.72;67.84;100612.42;126393;1099;101629;-80
2022/03/07 07:10:34;;;;;;;51.70;29.03;;;;;;;1.73;67.93;100612.53;126344;1099;112126;-78
2022/03/07 07:13:12;;;;;;;54.70;27.30;;;;;;;1.77;68.37;100609.36;126422;1099;101710;-78
2022/03/07 07:15:44;;;;;;;51.97;28.50;;;;;;;1.82;68.14;100613.98;126250;1099;101913;-78
2022/03/07 07:18:16;;;;;;;50.83;28.33;;;;;;;1.85;68.33;100606.44;127205;1098;102137;-78
2022/03/07 07:20:50;;;;;;;55.37;29.33;;;;;;;1.88;67.95;100609.24;127266;1098;101701;-79
2022/03/07 07:23:22;;;;;;;50.90;26.82;;;;;;;1.89;68.22;100601.59;127233;1098;101657;-78
2022/03/07 07:25:55;;;;;;;50.10;27.23;;;;;;;1.91;67.86;100599.11;127231;1099;101129;-79
2022/03/07 07:28:33;;;;;;;57.87;28.07;;;;;;;1.94;67.89;100596.75;126377;1099;101871;-78
2022/03/07 07:31:06;;;;;;;48.40;26.97;;;;;;;1.96;68.41;100592.56;126427;1099;108614;-78
2022/03/07 07:33:38;;;;;;;55.77;28.37;;;;;;;1.97;68.06;100592.67;127276;1099;101694;-78
2022/03/07 07:36:12;;;;;;;53.23;28.67;;;;;;;2.02;68.12;100592.12;127338;1098;101686;-78
2022/03/07 07:38:44;;;;;;;;;;;;;;;2.05;67.62;100592.34;126521;1099;101954;-78
2022/03/07 07:41:23;;;;;;;51.77;26.43;;;;;;;2.09;68.41;100592.66;127505;1098;103059;-80
2022/03/07 07:44:01;;;;;;;51.97;26.90;;;;;;;2.13;67.95;100589.48;126490;1099;101729;-79
2022/03/07 07:47:59;;;;;;;54.25;27.67;;;;;;;2.21;67.97;100582.25;126882;1098;101660;-82
2022/03/07 07:50:35;;;;;;;50.93;27.27;;;;;;;2.29;68.21;100583.72;127523;1098;101655;-81
2022/03/07 07:53:16;;;;;;;51.63;27.27;;;;;;;2.34;68.02;100582.34;126542;1100;101686;-80
2022/03/07 07:55:49;;;;;;;53.07;27.73;;;;;;;2.41;67.95;100581.06;126527;1099;103687;-78
2022/03/07 07:58:23;;;;;;;50.73;26.67;;;;;;;2.49;68.09;100579.92;127300;1099;101621;-79
2022/03/07 08:00:58;;;;;;;47.67;24.52;;;;;;;2.58;68.56;100576.16;126350;1099;101341;-80
2022/03/07 08:03:32;;;;;;;46.80;25.20;;;;;;;2.63;67.35;100573.11;127509;1098;101615;-80
2022/03/07 08:06:05;;;;;;;;;;;;;;;2.68;67.71;100570.80;127315;1098;101674;-79
2022/03/07 08:08:41;;;;;;;47.37;25.80;;;;;;;2.73;67.53;100560.75;127233;1099;101910;-80
2022/03/07 08:11:16;;;;;;;46.08;25.20;;;;;;;2.76;67.73;100568.73;126364;1099;101840;-80
2022/03/07 08:14:03;;;;;;;44.97;24.00;;;;;;;2.81;67.64;100562.19;126253;1099;101706;-79
2022/03/07 08:16:40;;;;;;;42.73;23.70;;;;;;;2.85;67.82;100562.50;127310;1099;101787;-78
2022/03/07 08:19:14;;;;;;;40.03;22.20;;;;;;;2.89;67.16;100553.23;126428;1099;101714;-78
2022/03/07 08:21:49;;;;;;;39.83;21.10;;;;;;;2.94;67.64;100553.53;127202;1098;102078;-81
2022/03/07 08:24:23;;;;;;;33.90;19.13;;;;;;;2.98;67.19;100550.37;127296;1098;102050;-79
2022/03/07 08:26:59;;;;;;;39.73;19.50;;;;;;;3.01;67.21;100546.27;127339;1099;101995;-80
2022/03/07 08:29:47;;;;;;;34.73;17.73;;;;;;;3.05;66.79;100542.17;127500;1098;101579;-80
2022/03/07 08:32:26;;;;;;;33.93;17.87;;;;;;;3.10;66.90;100540.81;127388;1099;101691;-80
2022/03/07 08:35:01;;;;;;;35.73;17.10;;;;;;;3.17;67.38;100545.58;127250;1098;101936;-78
2022/03/07 08:37:35;;;;;;;31.40;16.47;;;;;;;3.22;66.49;100549.37;127226;1099;101696;-78
2022/03/07 08:40:13;;;;;;;34.97;16.90;;;;;;;3.26;66.74;100547.90;127331;1098;101816;-80
2022/03/07 08:42:50;;;;;;;34.57;16.90;;;;;;;3.32;66.79;100540.52;127126;1098;110911;-80
2022/03/07 08:45:27;;;;;;;34.37;16.93;;;;;;;3.39;67.24;100542.69;127265;1098;101578;-80
2022/03/07 08:48:10;;;;;;;35.70;17.57;;;;;;;3.45;66.23;100530.94;126413;1102;103280;-79
2022/03/07 08:51:01;;;;;;;;;;;;;;;;;;;;;
2022/03/07 08:54:25;;;;;;;29.30;16.40;;;;;;;3.59;66.07;100525.81;127056;1098;101300;-79
2022/03/07 08:57:05;;;;;;;33.17;16.23;;;;;;;3.68;66.48;100532.42;127387;1098;101188;-79
2022/03/07 08:59:42;;;;;;;30.47;17.03;;;;;;;3.73;65.97;100531.00;126442;1099;101654;-79
2022/03/07 09:02:39;;;;;;;33.13;16.83;;;;;;;3.78;66.29;100530.47;126332;1101;102018;-80
2022/03/07 09:05:48;;;;;;;35.27;17.17;;;;;;;3.83;65.83;100530.77;126277;1102;101432;-81
2022/03/07 09:08:43;;;;;;;35.97;17.17;;;;;;;3.89;65.36;100519.88;126318;1102;101771;-80
2022/03/07 09:11:36;;;;;;;33.73;17.37;;;;;;;3.95;65.66;100525.45;126287;1102;101912;-81
2022/03/07 09:17:45;;;;;;;36.20;18.73;;;;;;;4.09;65.96;100515.94;126280;1105;101843;-79
2022/03/07 09:20:34;;;;;;;35.17;18.50;;;;;;;4.10;65.31;100513.43;126298;1102;101733;-80
2022/03/07 09:23:38;;;;;;;;;;;;;;;;;;;;;
2022/03/07 09:28:16;;;;;;;31.90;17.27;;;;;;;4.17;64.80;100509.50;125366;1102;102149;-79
2022/03/07 09:34:16;;;;;;;26.43;13.10;;;;;;;4.32;64.77;100492.25;124834;1102;104300;-79
2022/03/07 09:37:34;;;;;;;29.00;13.83;;;;;;;4.43;64.45;100495.50;125048;1102;104453;-81
2022/03/07 09:40:16;;;;;;;30.62;15.28;;;;;;;4.45;63.92;100493.00;125341;1102;104319;-80
2022/03/07 09:43:03;;;;;;;27.87;13.83;;;;;;;4.50;63.75;100489.88;124704;1102;104309;-80
2022/03/07 09:45:57;;;;;;;31.57;15.13;;;;;;;4.55;64.28;100489.23;124237;1102;104756;-79
2022/03/07 09:51:41;;;;;;;21.93;9.80;;;;;;;4.56;62.75;100491.05;124233;1102;104492;-80
2022/03/07 09:54:18;;;;;;;20.93;9.37;;;;;;;4.64;63.28;100482.91;124711;1102;103033;-79
2022/03/07 09:57:11;;;;;;;20.62;10.20;;;;;;;4.70;63.06;100486.66;125412;1102;104212;-79
2022/03/07 09:59:48;;;;;;;21.87;10.13;;;;;;;4.70;63.73;100484.06;123665;1102;104422;-79
2022/03/07 10:05:29;;;;;;;22.83;9.87;;;;;;;4.60;63.53;100472.23;124314;1099;104395;-79
2022/03/07 10:08:29;;;;;;;23.47;9.73;;;;;;;4.56;63.13;100471.14;124660;1099;104715;-78
2022/03/07 10:11:19;;;;;;;23.50;10.80;;;;;;;4.50;62.16;100471.69;124117;1098;104259;-78
2022/03/07 10:14:14;;;;;;;25.00;12.53;;;;;;;4.35;62.71;100470.77;124636;1099;104188;-77
2022/03/07 10:16:47;;;;;;;26.80;13.03;;;;;;;4.16;62.30;100476.56;124641;1099;104341;-79
2022/03/07 10:19:24;;;;;;;24.23;12.03;;;;;;;4.01;62.12;100470.43;124627;1099;104300;-79
2022/03/07 10:21:57;;;;;;;27.30;12.43;;;;;;;3.90;62.95;100468.05;124493;1099;105714;-78
2022/03/07 10:24:54;;;;;;;26.30;12.40;;;;;;;3.81;61.88;100470.08;124973;1098;104306;-79
2022/03/07 10:27:57;;;;;;;24.97;11.30;;;;;;;3.76;62.14;100462.01;126293;1099;104233;-81
2022/03/07 10:33:39;;;;;;;24.50;11.23;;;;;;;3.82;62.32;100456.31;126423;1099;119725;-81
2022/03/07 10:40:18;;;;;;;20.05;9.45;;;;;;;4.05;62.50;100443.83;125448;1102;104236;-81
2022/03/07 10:43:00;;;;;;;21.45;10.25;;;;;;;4.19;62.52;100445.58;124362;1102;104223;-79
2022/03/07 10:45:53;;;;;;;22.57;9.83;;;;;;;4.31;61.82;100437.61;123824;1102;104351;-79
2022/03/07 10:49:11;;;;;;;22.10;9.67;;;;;;;4.46;62.22;100437.64;124068;1100;104422;-81
2022/03/07 10:52:04;;;;;;;24.77;11.53;;;;;;;4.58;62.17;100427.97;124313;1101;104296;-81
2022/03/07 10:55:07;;;;;;;21.43;10.27;;;;;;;4.59;61.67;100419.34;125083;1102;104388;-78
2022/03/07 10:58:04;;;;;;;23.47;11.37;;;;;;;4.60;61.59;100422.86;124819;1102;104364;-77
2022/03/07 11:00:51;;;;;;;22.93;11.67;;;;;;;4.60;61.43;100428.94;124114;1102;104411;-77
2022/03/07 11:03:48;;;;;;;24.67;12.57;;;;;;;4.64;61.68;100417.93;125218;1102;104342;-77
2022/03/07 11:06:41;;;;;;;27.13;12.80;;;;;;;4.70;61.63;100419.08;126296;1102;101818;-78
2022/03/07 11:09:30;;;;;;;;;;;;;;;;;;;;;
2022/03/07 11:12:45;;;;;;;25.23;13.17;;;;;;;4.61;61.58;100416.83;125220;1101;104248;-77
2022/03/07 11:15:21;;;;;;;27.75;12.85;;;;;;;4.56;61.50;100408.77;124904;1105;102364;-77
2022/03/07 11:17:58;;;;;;;24.60;12.37;;;;;;;4.53;61.89;100408.59;124239;1099;104258;-78
2022/03/07 11:20:41;;;;;;;27.03;12.13;;;;;;;4.49;61.34;100401.44;125454;1102;104252;-78
2022/03/07 11:23:30;;;;;;;28.07;12.67;;;;;;;4.45;60.83;100399.45;124595;1099;104232;-78
2022/03/07 11:26:20;;;;;;;25.17;11.87;;;;;;;4.41;61.31;100393.20;125314;1102;103092;-78
2022/03/07 11:29:09;;;;;;;26.93;12.77;;;;;;;4.31;60.85;100396.05;125780;1099;104168;-78
2022/03/07 11:32:18;;;;;;;25.23;10.80;;;;;;;4.18;60.54;100399.63;125331;1099;104370;-78
2022/03/07 11:35:11;;;;;;;25.63;11.03;;;;;;;4.03;60.09;100403.90;124278;1102;102410;-78
2022/03/07 11:37:45;;;;;;;17.87;8.87;;;;;;;3.85;58.38;100401.07;124957;1099;104454;-77
2022/03/07 11:40:28;;;;;;;22.73;9.70;;;;;;;3.65;59.20;100398.17;124534;1099;104380;-78
2022/03/07 11:43:11;;;;;;;20.95;9.15;;;;;;;3.50;58.65;100390.31;125073;1099;104252;-78
2022/03/07 11:45:44;;;;;;;21.57;9.63;;;;;;;3.42;59.12;100391.55;124122;1099;104175;-78
2022/03/07 11:48:16;;;;;;;20.53;9.63;;;;;;;3.39;59.74;100389.65;123825;1099;104957;-77
2022/03/07 11:50:49;;;;;;;19.20;9.60;;;;;;;3.40;59.36;100387.97;123739;1099;104267;-78
2022/03/07 11:53:27;;;;;;;21.90;10.53;;;;;;;3.36;59.35;100391.16;123817;1099;104352;-80
2022/03/07 11:56:26;;;;;;;21.93;9.53;;;;;;;3.33;59.45;100385.78;124500;1099;104342;-80
2022/03/07 11:59:02;;;;;;;21.07;9.87;;;;;;;3.29;59.76;100382.11;124668;1099;104184;-79
2022/03/07 12:01:52;;;;;;;24.83;10.43;;;;;;;3.28;59.91;100382.02;124443;1099;104390;-79
2022/03/07 12:04:39;;;;;;;20.97;9.40;;;;;;;3.33;59.38;100388.38;125258;1098;104309;-81
2022/03/07 12:07:14;;;;;;;23.40;10.08;;;;;;;3.36;59.39;100378.20;124696;1099;102982;-82
2022/03/07 12:10:21;;;;;;;20.43;9.77;;;;;;;3.37;59.83;100377.41;124993;1099;104210;-83
2022/03/07 12:13:10;;;;;;;23.03;10.60;;;;;;;3.45;60.00;100376.17;125132;1099;104248;-80